GIA213 WAHI-WIII
Flight info
| Callsign | GIA213 |
|---|---|
| Flight time | 0h 48m |
| Altitude | 28000 |
| Route | CA W17S IMU |
| Aircraft | B738/M-SDE2E3FGHIRWXY/LB1 |
Departure
| Time | 2026-04-25 09:12 |
|---|---|
| Airport | Yogyakarta International Airport (WAHI) |
Arrival
| Time | 2026-04-25 10:00 |
|---|---|
| Airport | Soekarno-Hatta International Airport (WIII) |
| Time | Latitude | Longitude | Altitude | Speed | Heading |
|---|---|---|---|---|---|
| 2026-04-25 08:50 | -7.90111 | 110.05869 | 37 ft | 0 kts | 20° |
| 2026-04-25 09:04 | -7.90125 | 110.05864 | 37 ft | 3 kts | 17° |
| 2026-04-25 09:04 | -7.90144 | 110.05859 | 35 ft | 3 kts | 12° |
| 2026-04-25 09:04 | -7.90164 | 110.05855 | 33 ft | 3 kts | 4° |
| 2026-04-25 09:05 | -7.90184 | 110.05855 | 37 ft | 3 kts | 353° |
| 2026-04-25 09:05 | -7.90204 | 110.05859 | 37 ft | 3 kts | 333° |
| 2026-04-25 09:05 | -7.90218 | 110.05870 | 35 ft | 3 kts | 295° |
| 2026-04-25 09:05 | -7.90221 | 110.05877 | 33 ft | 0 kts | 290° |
| 2026-04-25 09:07 | -7.90220 | 110.05872 | 37 ft | 2 kts | 290° |
| 2026-04-25 09:08 | -7.90208 | 110.05836 | 37 ft | 8 kts | 277° |
| 2026-04-25 09:08 | -7.90228 | 110.05794 | 37 ft | 8 kts | 220° |
| 2026-04-25 09:08 | -7.90291 | 110.05765 | 36 ft | 13 kts | 200° |
| 2026-04-25 09:08 | -7.90346 | 110.05714 | 37 ft | 5 kts | 278° |
| 2026-04-25 09:09 | -7.90328 | 110.05663 | 37 ft | 11 kts | 290° |
| 2026-04-25 09:09 | -7.90293 | 110.05566 | 34 ft | 19 kts | 290° |
| 2026-04-25 09:09 | -7.90237 | 110.05410 | 33 ft | 27 kts | 290° |
| 2026-04-25 09:09 | -7.90166 | 110.05219 | 29 ft | 28 kts | 290° |
| 2026-04-25 09:10 | -7.90095 | 110.05024 | 29 ft | 29 kts | 290° |
| 2026-04-25 09:10 | -7.90027 | 110.04837 | 30 ft | 30 kts | 290° |
| 2026-04-25 09:10 | -7.89956 | 110.04642 | 33 ft | 29 kts | 290° |
| 2026-04-25 09:10 | -7.89885 | 110.04448 | 31 ft | 28 kts | 290° |
| 2026-04-25 09:11 | -7.90009 | 110.04358 | 33 ft | 17 kts | 145° |
| 2026-04-25 09:11 | -7.90071 | 110.04465 | 34 ft | 23 kts | 111° |
| 2026-04-25 09:11 | -7.90218 | 110.04862 | 30 ft | 97 kts | 110° |
| 2026-04-25 09:12 | -7.90525 | 110.05706 | 40 ft | 157 kts | 111° |
| 2026-04-25 09:12 | -7.90940 | 110.06825 | 504 ft | 178 kts | 111° |
| 2026-04-25 09:12 | -7.91440 | 110.08077 | 992 ft | 201 kts | 112° |
| 2026-04-25 09:12 | -7.91901 | 110.09415 | 1733 ft | 206 kts | 108° |
| 2026-04-25 09:13 | -7.91943 | 110.10929 | 1990 ft | 231 kts | 73° |
| 2026-04-25 09:13 | -7.91009 | 110.12284 | 2486 ft | 242 kts | 38° |
| 2026-04-25 09:13 | -7.89449 | 110.12957 | 3082 ft | 253 kts | 8° |
| 2026-04-25 09:13 | -7.87681 | 110.12706 | 3676 ft | 267 kts | 336° |
| 2026-04-25 09:14 | -7.86180 | 110.11580 | 4570 ft | 270 kts | 317° |
| 2026-04-25 09:14 | -7.84920 | 110.10194 | 5394 ft | 275 kts | 313° |
| 2026-04-25 09:14 | -7.83662 | 110.08689 | 6253 ft | 278 kts | 312° |
| 2026-04-25 09:14 | -7.82431 | 110.07199 | 7071 ft | 281 kts | 312° |
| 2026-04-25 09:15 | -7.81162 | 110.05675 | 7852 ft | 287 kts | 312° |
| 2026-04-25 09:15 | -7.79857 | 110.04124 | 8589 ft | 293 kts | 312° |
| 2026-04-25 09:15 | -7.78523 | 110.02557 | 9357 ft | 296 kts | 313° |
| 2026-04-25 09:15 | -7.77163 | 110.00972 | 10103 ft | 300 kts | 313° |
| 2026-04-25 09:16 | -7.75760 | 109.99348 | 10502 ft | 317 kts | 313° |
| 2026-04-25 09:16 | -7.74253 | 109.97612 | 10662 ft | 341 kts | 313° |
| 2026-04-25 09:16 | -7.72641 | 109.95761 | 10906 ft | 359 kts | 313° |
| 2026-04-25 09:16 | -7.70976 | 109.93851 | 11417 ft | 366 kts | 313° |
| 2026-04-25 09:17 | -7.67590 | 109.89969 | 12725 ft | 372 kts | 313° |
| 2026-04-25 09:17 | -7.65871 | 109.88002 | 13318 ft | 377 kts | 313° |
| 2026-04-25 09:17 | -7.64119 | 109.85997 | 13889 ft | 381 kts | 313° |
| 2026-04-25 09:18 | -7.62365 | 109.83991 | 14464 ft | 383 kts | 312° |
| 2026-04-25 09:18 | -7.60598 | 109.81971 | 15029 ft | 385 kts | 312° |
| 2026-04-25 09:18 | -7.58815 | 109.79933 | 15595 ft | 388 kts | 312° |
| 2026-04-25 09:18 | -7.57048 | 109.77914 | 16105 ft | 391 kts | 312° |
| 2026-04-25 09:19 | -7.55233 | 109.75842 | 16624 ft | 395 kts | 313° |
| 2026-04-25 09:19 | -7.53412 | 109.73762 | 17187 ft | 397 kts | 312° |
| 2026-04-25 09:19 | -7.51583 | 109.71674 | 17711 ft | 400 kts | 313° |
| 2026-04-25 09:19 | -7.49737 | 109.69566 | 18227 ft | 402 kts | 312° |
| 2026-04-25 09:20 | -7.47869 | 109.67434 | 18662 ft | 405 kts | 312° |
| 2026-04-25 09:20 | -7.46000 | 109.65300 | 19096 ft | 408 kts | 312° |
| 2026-04-25 09:20 | -7.44114 | 109.63148 | 19508 ft | 411 kts | 312° |
| 2026-04-25 09:20 | -7.42216 | 109.60983 | 19942 ft | 413 kts | 312° |
| 2026-04-25 09:21 | -7.40308 | 109.58806 | 20375 ft | 415 kts | 312° |
| 2026-04-25 09:21 | -7.38392 | 109.56622 | 20772 ft | 418 kts | 312° |
| 2026-04-25 09:21 | -7.36455 | 109.54412 | 21155 ft | 421 kts | 312° |
| 2026-04-25 09:21 | -7.35171 | 109.52947 | 21418 ft | 423 kts | 312° |
| 2026-04-25 09:22 | -7.33219 | 109.50720 | 21837 ft | 425 kts | 312° |
| 2026-04-25 09:22 | -7.31255 | 109.48481 | 22246 ft | 427 kts | 312° |
| 2026-04-25 09:22 | -7.29283 | 109.46233 | 22620 ft | 430 kts | 312° |
| 2026-04-25 09:22 | -7.26646 | 109.43228 | 23111 ft | 433 kts | 312° |
| 2026-04-25 09:23 | -7.25297 | 109.41691 | 23377 ft | 434 kts | 312° |
| 2026-04-25 09:23 | -7.23292 | 109.39407 | 23691 ft | 437 kts | 312° |
| 2026-04-25 09:23 | -7.20617 | 109.36359 | 24069 ft | 439 kts | 312° |
| 2026-04-25 09:23 | -7.19250 | 109.34801 | 24278 ft | 441 kts | 312° |
| 2026-04-25 09:24 | -7.17212 | 109.32479 | 24543 ft | 443 kts | 312° |
| 2026-04-25 09:24 | -7.14495 | 109.29386 | 24905 ft | 446 kts | 312° |
| 2026-04-25 09:24 | -7.13127 | 109.27827 | 25095 ft | 448 kts | 312° |
| 2026-04-25 09:24 | -7.11061 | 109.25476 | 25390 ft | 449 kts | 312° |
| 2026-04-25 09:25 | -7.08989 | 109.23117 | 25732 ft | 449 kts | 312° |
| 2026-04-25 09:25 | -7.06220 | 109.19966 | 26234 ft | 449 kts | 312° |
| 2026-04-25 09:25 | -7.04859 | 109.18418 | 26474 ft | 449 kts | 312° |
| 2026-04-25 09:25 | -7.02786 | 109.16059 | 26865 ft | 448 kts | 312° |
| 2026-04-25 09:26 | -7.00727 | 109.13717 | 27352 ft | 445 kts | 312° |
| 2026-04-25 09:26 | -6.98686 | 109.11394 | 27757 ft | 444 kts | 311° |
| 2026-04-25 09:26 | -6.96648 | 109.09077 | 27843 ft | 448 kts | 311° |
| 2026-04-25 09:26 | -6.94557 | 109.06699 | 27850 ft | 449 kts | 311° |
| 2026-04-25 09:27 | -6.92522 | 109.04385 | 27848 ft | 446 kts | 311° |
| 2026-04-25 09:27 | -6.90464 | 109.02045 | 27855 ft | 446 kts | 311° |
| 2026-04-25 09:27 | -6.88397 | 108.99696 | 27861 ft | 448 kts | 311° |
| 2026-04-25 09:27 | -6.86327 | 108.97343 | 27857 ft | 449 kts | 311° |
| 2026-04-25 09:28 | -6.84258 | 108.94992 | 27856 ft | 449 kts | 311° |
| 2026-04-25 09:28 | -6.82178 | 108.92629 | 27852 ft | 450 kts | 311° |
| 2026-04-25 09:28 | -6.80117 | 108.90288 | 27844 ft | 450 kts | 311° |
| 2026-04-25 09:28 | -6.78047 | 108.87937 | 27847 ft | 449 kts | 311° |
| 2026-04-25 09:29 | -6.75974 | 108.85571 | 27854 ft | 451 kts | 311° |
| 2026-04-25 09:29 | -6.73910 | 108.83172 | 27866 ft | 457 kts | 311° |
| 2026-04-25 09:29 | -6.71817 | 108.80739 | 27860 ft | 463 kts | 311° |
| 2026-04-25 09:29 | -6.69709 | 108.78309 | 27858 ft | 468 kts | 311° |
| 2026-04-25 09:30 | -6.67522 | 108.75809 | 27858 ft | 472 kts | 311° |
| 2026-04-25 09:30 | -6.65358 | 108.73352 | 27859 ft | 476 kts | 311° |
| 2026-04-25 09:30 | -6.63141 | 108.70845 | 27858 ft | 479 kts | 311° |
| 2026-04-25 09:30 | -6.60918 | 108.68335 | 27857 ft | 482 kts | 311° |
| 2026-04-25 09:31 | -6.58681 | 108.65812 | 27858 ft | 485 kts | 311° |
| 2026-04-25 09:31 | -6.56432 | 108.63274 | 27854 ft | 488 kts | 311° |
| 2026-04-25 09:31 | -6.54181 | 108.60734 | 27852 ft | 490 kts | 311° |
| 2026-04-25 09:31 | -6.51909 | 108.58170 | 27848 ft | 491 kts | 311° |
| 2026-04-25 09:32 | -6.49626 | 108.55592 | 27846 ft | 493 kts | 311° |
| 2026-04-25 09:32 | -6.47336 | 108.53008 | 27849 ft | 494 kts | 311° |
| 2026-04-25 09:32 | -6.45056 | 108.50434 | 27844 ft | 495 kts | 311° |
| 2026-04-25 09:32 | -6.42752 | 108.47835 | 27845 ft | 496 kts | 311° |
| 2026-04-25 09:33 | -6.40461 | 108.45250 | 27848 ft | 496 kts | 311° |
| 2026-04-25 09:33 | -6.38165 | 108.42660 | 27844 ft | 496 kts | 311° |
| 2026-04-25 09:33 | -6.35854 | 108.40053 | 27849 ft | 496 kts | 311° |
| 2026-04-25 09:33 | -6.33563 | 108.37468 | 27848 ft | 496 kts | 311° |
| 2026-04-25 09:34 | -6.31268 | 108.34881 | 27844 ft | 496 kts | 311° |
| 2026-04-25 09:34 | -6.28957 | 108.32309 | 27846 ft | 496 kts | 313° |
| 2026-04-25 09:34 | -6.26570 | 108.29802 | 27848 ft | 496 kts | 314° |
| 2026-04-25 09:34 | -6.24141 | 108.27326 | 27846 ft | 496 kts | 315° |
| 2026-04-25 09:35 | -6.21731 | 108.24876 | 27845 ft | 496 kts | 315° |
| 2026-04-25 09:35 | -6.19297 | 108.22384 | 27848 ft | 496 kts | 314° |
| 2026-04-25 09:35 | -6.16897 | 108.19903 | 27847 ft | 496 kts | 314° |
| 2026-04-25 09:35 | -6.14497 | 108.17412 | 27849 ft | 496 kts | 314° |
| 2026-04-25 09:36 | -6.12154 | 108.14980 | 27846 ft | 497 kts | 314° |
| 2026-04-25 09:36 | -6.09766 | 108.12516 | 27847 ft | 497 kts | 314° |
| 2026-04-25 09:36 | -6.07346 | 108.10032 | 27847 ft | 497 kts | 314° |
| 2026-04-25 09:36 | -6.04928 | 108.07554 | 27847 ft | 497 kts | 314° |
| 2026-04-25 09:37 | -6.02495 | 108.05058 | 27843 ft | 498 kts | 314° |
| 2026-04-25 09:37 | -6.00072 | 108.02570 | 27846 ft | 497 kts | 314° |
| 2026-04-25 09:37 | -5.97915 | 107.99879 | 27837 ft | 497 kts | 300° |
| 2026-04-25 09:37 | -5.96546 | 107.96741 | 27839 ft | 480 kts | 285° |
| 2026-04-25 09:38 | -5.96019 | 107.93515 | 27841 ft | 460 kts | 271° |
| 2026-04-25 09:38 | -5.96008 | 107.90358 | 27845 ft | 442 kts | 269° |
| 2026-04-25 09:38 | -5.96061 | 107.87323 | 27830 ft | 426 kts | 268° |
| 2026-04-25 09:38 | -5.96115 | 107.84388 | 27636 ft | 417 kts | 268° |
| 2026-04-25 09:39 | -5.96150 | 107.81504 | 27340 ft | 410 kts | 269° |
| 2026-04-25 09:39 | -5.96167 | 107.78689 | 26880 ft | 409 kts | 269° |
| 2026-04-25 09:39 | -5.96171 | 107.75788 | 26501 ft | 405 kts | 269° |
| 2026-04-25 09:40 | -5.96169 | 107.70181 | 25670 ft | 402 kts | 270° |
| 2026-04-25 09:40 | -5.96167 | 107.67373 | 25232 ft | 401 kts | 270° |
| 2026-04-25 09:40 | -5.96167 | 107.64577 | 24798 ft | 400 kts | 270° |
| 2026-04-25 09:40 | -5.96167 | 107.61767 | 24296 ft | 403 kts | 270° |
| 2026-04-25 09:41 | -5.96168 | 107.58946 | 23798 ft | 405 kts | 270° |
| 2026-04-25 09:41 | -5.96168 | 107.56112 | 23273 ft | 407 kts | 270° |
| 2026-04-25 09:41 | -5.96169 | 107.53266 | 22708 ft | 407 kts | 270° |
| 2026-04-25 09:41 | -5.96169 | 107.50430 | 22193 ft | 406 kts | 270° |
| 2026-04-25 09:42 | -5.96169 | 107.47596 | 21685 ft | 404 kts | 270° |
| 2026-04-25 09:42 | -5.96169 | 107.44784 | 21187 ft | 403 kts | 270° |
| 2026-04-25 09:42 | -5.96169 | 107.41971 | 20695 ft | 401 kts | 270° |
| 2026-04-25 09:42 | -5.96168 | 107.39172 | 20206 ft | 400 kts | 270° |
| 2026-04-25 09:43 | -5.96168 | 107.36381 | 19711 ft | 399 kts | 270° |
| 2026-04-25 09:43 | -5.96168 | 107.33629 | 19218 ft | 398 kts | 270° |
| 2026-04-25 09:43 | -5.96166 | 107.30844 | 18721 ft | 398 kts | 271° |
| 2026-04-25 09:43 | -5.96163 | 107.28072 | 18234 ft | 397 kts | 271° |
| 2026-04-25 09:44 | -5.96159 | 107.25362 | 17707 ft | 396 kts | 271° |
| 2026-04-25 09:44 | -5.96153 | 107.22596 | 17208 ft | 394 kts | 271° |
| 2026-04-25 09:44 | -5.96149 | 107.19859 | 16716 ft | 391 kts | 271° |
| 2026-04-25 09:44 | -5.96144 | 107.17132 | 16242 ft | 389 kts | 271° |
| 2026-04-25 09:45 | -5.96139 | 107.14417 | 15772 ft | 387 kts | 270° |
| 2026-04-25 09:45 | -5.96136 | 107.12307 | 15450 ft | 384 kts | 270° |
| 2026-04-25 09:45 | -5.96132 | 107.09608 | 15062 ft | 379 kts | 270° |
| 2026-04-25 09:45 | -5.96126 | 107.06958 | 14622 ft | 377 kts | 270° |
| 2026-04-25 09:46 | -5.96123 | 107.04341 | 14175 ft | 376 kts | 270° |
| 2026-04-25 09:46 | -5.96335 | 107.01719 | 13708 ft | 375 kts | 261° |
| 2026-04-25 09:46 | -5.96785 | 106.99145 | 13216 ft | 374 kts | 259° |
| 2026-04-25 09:46 | -5.97287 | 106.96583 | 12759 ft | 371 kts | 259° |
| 2026-04-25 09:47 | -5.97785 | 106.94068 | 12309 ft | 369 kts | 259° |
| 2026-04-25 09:47 | -5.98278 | 106.91530 | 11859 ft | 367 kts | 259° |
| 2026-04-25 09:47 | -5.98752 | 106.89024 | 11426 ft | 364 kts | 259° |
| 2026-04-25 09:47 | -5.99216 | 106.86528 | 10995 ft | 362 kts | 260° |
| 2026-04-25 09:48 | -5.99673 | 106.84044 | 10566 ft | 360 kts | 260° |
| 2026-04-25 09:48 | -6.00124 | 106.81569 | 10120 ft | 359 kts | 260° |
| 2026-04-25 09:48 | -6.00571 | 106.79112 | 9895 ft | 350 kts | 260° |
| 2026-04-25 09:48 | -6.00994 | 106.76788 | 9882 ft | 335 kts | 260° |
| 2026-04-25 09:49 | -6.01405 | 106.74529 | 9809 ft | 324 kts | 260° |
| 2026-04-25 09:49 | -6.01803 | 106.72338 | 9728 ft | 313 kts | 260° |
| 2026-04-25 09:49 | -6.02185 | 106.70233 | 9643 ft | 302 kts | 260° |
| 2026-04-25 09:49 | -6.02555 | 106.68194 | 9435 ft | 289 kts | 260° |
| 2026-04-25 09:50 | -6.02908 | 106.66252 | 9236 ft | 278 kts | 260° |
| 2026-04-25 09:50 | -6.03259 | 106.64314 | 8531 ft | 288 kts | 260° |
| 2026-04-25 09:50 | -6.03620 | 106.62324 | 8048 ft | 288 kts | 260° |
| 2026-04-25 09:50 | -6.03975 | 106.60368 | 7802 ft | 279 kts | 260° |
| 2026-04-25 09:51 | -6.04320 | 106.58498 | 7543 ft | 272 kts | 258° |
| 2026-04-25 09:51 | -6.04903 | 106.56684 | 7253 ft | 266 kts | 248° |
| 2026-04-25 09:51 | -6.05608 | 106.54999 | 6911 ft | 265 kts | 246° |
| 2026-04-25 09:51 | -6.06340 | 106.53293 | 6540 ft | 264 kts | 246° |
| 2026-04-25 09:52 | -6.07053 | 106.51601 | 6182 ft | 263 kts | 246° |
| 2026-04-25 09:52 | -6.07752 | 106.49905 | 5673 ft | 265 kts | 247° |
| 2026-04-25 09:52 | -6.08449 | 106.48193 | 5140 ft | 263 kts | 247° |
| 2026-04-25 09:52 | -6.09133 | 106.46503 | 4596 ft | 261 kts | 247° |
| 2026-04-25 09:53 | -6.09816 | 106.44815 | 3985 ft | 259 kts | 247° |
| 2026-04-25 09:53 | -6.10779 | 106.43314 | 3361 ft | 255 kts | 219° |
| 2026-04-25 09:53 | -6.12306 | 106.42506 | 2773 ft | 246 kts | 189° |
| 2026-04-25 09:53 | -6.13914 | 106.42425 | 2533 ft | 225 kts | 171° |
| 2026-04-25 09:54 | -6.15434 | 106.42658 | 2284 ft | 210 kts | 163° |
| 2026-04-25 09:54 | -6.16622 | 106.43270 | 2135 ft | 186 kts | 131° |
| 2026-04-25 09:54 | -6.17305 | 106.44285 | 2042 ft | 172 kts | 108° |
| 2026-04-25 09:54 | -6.17515 | 106.45457 | 2004 ft | 169 kts | 89° |
| 2026-04-25 09:55 | -6.17501 | 106.46638 | 2007 ft | 170 kts | 87° |
| 2026-04-25 09:55 | -6.17472 | 106.47817 | 1988 ft | 168 kts | 88° |
| 2026-04-25 09:55 | -6.17440 | 106.48957 | 1989 ft | 160 kts | 85° |
| 2026-04-25 09:55 | -6.17149 | 106.50010 | 2003 ft | 155 kts | 65° |
| 2026-04-25 09:56 | -6.16729 | 106.51013 | 2008 ft | 152 kts | 70° |
| 2026-04-25 09:56 | -6.16368 | 106.51951 | 2034 ft | 140 kts | 69° |
| 2026-04-25 09:56 | -6.16011 | 106.52862 | 1998 ft | 138 kts | 68° |
| 2026-04-25 09:56 | -6.15657 | 106.53757 | 1995 ft | 137 kts | 68° |
| 2026-04-25 09:57 | -6.15303 | 106.54645 | 1994 ft | 139 kts | 68° |
| 2026-04-25 09:57 | -6.14978 | 106.55461 | 1887 ft | 137 kts | 68° |
| 2026-04-25 09:57 | -6.14649 | 106.56288 | 1715 ft | 138 kts | 67° |
| 2026-04-25 09:57 | -6.14296 | 106.57172 | 1558 ft | 135 kts | 67° |
| 2026-04-25 09:58 | -6.13956 | 106.58025 | 1387 ft | 130 kts | 66° |
| 2026-04-25 09:58 | -6.13621 | 106.58864 | 1229 ft | 133 kts | 67° |
| 2026-04-25 09:58 | -6.13273 | 106.59736 | 1039 ft | 133 kts | 67° |
| 2026-04-25 09:58 | -6.12932 | 106.60593 | 898 ft | 133 kts | 67° |
| 2026-04-25 09:59 | -6.12586 | 106.61461 | 720 ft | 131 kts | 67° |
| 2026-04-25 09:59 | -6.12249 | 106.62304 | 540 ft | 129 kts | 65° |
| 2026-04-25 09:59 | -6.11911 | 106.63132 | 328 ft | 127 kts | 61° |
| 2026-04-25 09:59 | -6.11571 | 106.63947 | 169 ft | 129 kts | 64° |
| 2026-04-25 10:00 | -6.11236 | 106.64792 | 58 ft | 128 kts | 66° |
| 2026-04-25 10:00 | -6.10933 | 106.65571 | 42 ft | 105 kts | 65° |
| 2026-04-25 10:00 | -6.10696 | 106.66144 | 34 ft | 68 kts | 69° |
| 2026-04-25 10:00 | -6.10624 | 106.66388 | 33 ft | 28 kts | 81° |
| 2026-04-25 10:01 | -6.10640 | 106.66578 | 33 ft | 26 kts | 99° |
| 2026-04-25 10:01 | -6.10756 | 106.66679 | 35 ft | 20 kts | 188° |
| 2026-04-25 10:01 | -6.10830 | 106.66572 | 36 ft | 19 kts | 249° |
| 2026-04-25 10:01 | -6.10879 | 106.66449 | 33 ft | 19 kts | 248° |
| 2026-04-25 10:02 | -6.10926 | 106.66330 | 35 ft | 18 kts | 248° |
| 2026-04-25 10:02 | -6.10972 | 106.66216 | 36 ft | 17 kts | 248° |
| 2026-04-25 10:02 | -6.11015 | 106.66105 | 36 ft | 17 kts | 249° |
| 2026-04-25 10:02 | -6.11061 | 106.66003 | 36 ft | 16 kts | 227° |
| 2026-04-25 10:03 | -6.11141 | 106.66006 | 37 ft | 12 kts | 156° |
| 2026-04-25 10:03 | -6.11211 | 106.66048 | 35 ft | 12 kts | 131° |
| 2026-04-25 10:03 | -6.11244 | 106.66121 | 36 ft | 11 kts | 103° |
| 2026-04-25 10:03 | -6.11258 | 106.66199 | 37 ft | 11 kts | 99° |
| 2026-04-25 10:04 | -6.11292 | 106.66264 | 37 ft | 11 kts | 140° |
| 2026-04-25 10:04 | -6.11360 | 106.66292 | 37 ft | 10 kts | 159° |
| 2026-04-25 10:04 | -6.11426 | 106.66319 | 37 ft | 10 kts | 158° |
| 2026-04-25 10:04 | -6.11491 | 106.66345 | 37 ft | 10 kts | 159° |
| 2026-04-25 10:05 | -6.11554 | 106.66370 | 36 ft | 10 kts | 159° |
| 2026-04-25 10:05 | -6.11614 | 106.66396 | 37 ft | 9 kts | 145° |
| 2026-04-25 10:05 | -6.11637 | 106.66453 | 37 ft | 9 kts | 86° |
| 2026-04-25 10:05 | -6.11651 | 106.66477 | 35 ft | 3 kts | 141° |
| 2026-04-25 10:06 | -6.11671 | 106.66489 | 37 ft | 3 kts | 153° |
| 2026-04-25 10:06 | -6.11690 | 106.66499 | 35 ft | 3 kts | 154° |
| 2026-04-25 10:06 | -6.11710 | 106.66509 | 37 ft | 3 kts | 153° |
| 2026-04-25 10:06 | -6.11730 | 106.66519 | 37 ft | 3 kts | 153° |
| 2026-04-25 10:07 | -6.11739 | 106.66525 | 37 ft | 1 kts | 140° |